LYBE/BEG METAR and TAF weather

Enter ICAO airport designator
Station Type Date Time Source
LYBE METAR 2019/08/24 22:00 UTC NOAA

LYBE 242200Z 06004KT CAVOK 26/15 Q1018 NOSIG


Station Type Date Time Source
LYBE Decoded METAR 2019/08/24 22:00 UTC NOAA

Station name not available
Aug 24, 2019 - 06:00 PM EDT / 2019.08.24 2200 UTC
Wind: from the ENE (060 degrees) at 5 MPH (4 KT):0
Visibility: greater than 7 mile(s):0
Temperature: 78 F (26 C)
Dew Point: 59 F (15 C)
Relative Humidity: 50%
Pressure (altimeter): 30.06 in. Hg (1018 hPa)
ob: LYBE 242200Z 06004KT CAVOK 26/15 Q1018 NOSIG
cycle: 22

Station Type Date Time Source
LYBE TAF 2019/08/24 18:21 UTC NOAA

TAF LYBE 241700Z 2418/2518 09009KT CAVOK TX32/2513Z TN18/2504Z
TEMPO 2514/2518 VRB15KT 3000 TSRA SCT030CB BKN040

Example: see airport list